Time;durP1;ratioP1;P1;durP2;ratioP2;P2;SDS_P1;SDS_P2;PMS_P1;PMS_P2;Temp;Humidity;BMP_temperature;BMP_pressure;BME280_temperature;BME280_humidity;BME280_pressure;Samples;Min_cycle;Max_cycle;Signal;HPM_P1;HPM_P2
2023/12/27 00:00:08;;;;;;;5.93;3.47;;;5.90;99.90;;;;;;5172785;27;20197;-63
2023/12/27 00:02:37;;;;;;;7.93;3.10;;;5.90;99.90;;;;;;5153947;27;20678;-63
2023/12/27 00:05:08;;;;;;;5.27;2.87;;;5.90;99.90;;;;;;5172664;27;20273;-64
2023/12/27 00:07:37;;;;;;;7.80;2.50;;;5.90;99.90;;;;;;5172619;27;20346;-63
2023/12/27 00:10:07;;;;;;;6.40;2.77;;;5.90;99.90;;;;;;5172416;27;20188;-63
2023/12/27 00:12:35;;;;;;;7.23;3.10;;;6.00;99.90;;;;;;5172182;27;20634;-64
2023/12/27 00:15:04;;;;;;;8.37;2.77;;;6.00;99.90;;;;;;5172305;27;20190;-63
2023/12/27 00:17:34;;;;;;;6.57;2.37;;;6.10;99.90;;;;;;5172298;27;20750;-64
2023/12/27 00:20:03;;;;;;;5.60;2.20;;;6.10;99.90;;;;;;5172426;27;20896;-64
2023/12/27 00:22:33;;;;;;;5.70;2.27;;;5.90;99.90;;;;;;5172174;27;20294;-63
2023/12/27 00:25:02;;;;;;;4.17;2.07;;;5.90;99.90;;;;;;5172403;27;20191;-63
2023/12/27 00:27:30;;;;;;;3.40;2.43;;;5.80;99.90;;;;;;5171571;27;20218;-63
2023/12/27 00:29:59;;;;;;;6.27;2.70;;;5.70;99.90;;;;;;5171904;27;20277;-63
2023/12/27 00:32:28;;;;;;;6.97;2.77;;;5.80;99.90;;;;;;5172165;27;20194;-63
2023/12/27 00:34:56;;;;;;;10.53;3.00;;;5.90;99.90;;;;;;5172006;27;20190;-64
2023/12/27 00:37:25;;;;;;;6.93;2.70;;;6.00;99.90;;;;;;5171955;27;20298;-63
2023/12/27 00:39:55;;;;;;;5.40;2.70;;;6.00;99.90;;;;;;5171972;27;20304;-64
2023/12/27 00:42:23;;;;;;;3.33;2.43;;;6.00;99.90;;;;;;5153100;27;20292;-63
2023/12/27 00:44:52;;;;;;;7.07;2.57;;;6.10;99.90;;;;;;5171938;27;20188;-64
2023/12/27 00:47:21;;;;;;;9.13;2.67;;;6.00;99.90;;;;;;5153037;27;20616;-63
2023/12/27 00:49:49;;;;;;;6.67;2.53;;;6.00;99.90;;;;;;5163728;27;20189;-64
2023/12/27 00:52:18;;;;;;;5.43;2.73;;;5.90;99.90;;;;;;5153028;27;20229;-63
2023/12/27 00:54:47;;;;;;;4.40;2.40;;;5.90;99.90;;;;;;5153035;27;20242;-63
2023/12/27 00:57:17;;;;;;;8.30;2.93;;;6.00;99.90;;;;;;5171510;27;20200;-63
2023/12/27 00:59:49;;;;;;;4.80;2.77;;;6.00;99.90;;;;;;5153064;27;20206;-62
2023/12/27 01:02:17;;;;;;;5.73;2.87;;;5.90;99.90;;;;;;5171708;27;20560;-63
2023/12/27 01:04:47;;;;;;;7.63;2.97;;;6.00;99.90;;;;;;5152897;27;20202;-63
2023/12/27 01:07:15;;;;;;;6.27;2.60;;;6.10;99.90;;;;;;5154023;27;20274;-62
2023/12/27 01:09:45;;;;;;;3.63;2.43;;;6.00;99.90;;;;;;5175802;27;20192;-63
2023/12/27 01:12:13;;;;;;;3.80;2.40;;;6.10;99.90;;;;;;5175720;27;20178;-63
2023/12/27 01:14:44;;;;;;;9.67;4.20;;;6.10;99.90;;;;;;5156581;27;20206;-63
2023/12/27 01:17:12;;;;;;;9.57;3.10;;;6.20;99.90;;;;;;5175783;27;20199;-63
2023/12/27 01:19:41;;;;;;;7.27;2.73;;;6.10;99.90;;;;;;5156497;27;20206;-64
2023/12/27 01:22:09;;;;;;;6.13;2.27;;;6.10;99.90;;;;;;5175450;27;20604;-64
2023/12/27 01:24:38;;;;;;;6.13;2.80;;;6.10;99.90;;;;;;5175401;27;20184;-63
2023/12/27 01:27:08;;;;;;;7.30;2.77;;;6.20;99.90;;;;;;5156528;27;20209;-63
2023/12/27 01:29:36;;;;;;;2.50;2.20;;;6.10;99.90;;;;;;5175423;27;20630;-62
2023/12/27 01:32:07;;;;;;;6.27;2.53;;;6.10;99.90;;;;;;5156209;27;20212;-64
2023/12/27 01:34:38;;;;;;;4.73;2.53;;;6.10;99.90;;;;;;5175284;27;20659;-64
2023/12/27 01:37:07;;;;;;;6.80;2.70;;;6.10;99.90;;;;;;5175499;27;20195;-63
2023/12/27 01:39:36;;;;;;;7.77;2.60;;;6.10;99.90;;;;;;5175248;27;20198;-64
2023/12/27 01:42:05;;;;;;;4.87;2.80;;;6.10;99.90;;;;;;5156407;27;20559;-63
2023/12/27 01:44:33;;;;;;;10.10;3.60;;;6.10;99.90;;;;;;5175253;27;20191;-62
2023/12/27 01:47:02;;;;;;;4.57;2.50;;;6.10;99.90;;;;;;5175014;27;21007;-64
2023/12/27 01:49:32;;;;;;;6.33;2.63;;;6.10;99.90;;;;;;5175010;27;20201;-63
2023/12/27 01:52:02;;;;;;;4.73;2.40;;;6.10;99.90;;;;;;5174740;27;20306;-63
2023/12/27 01:54:30;;;;;;;10.13;2.87;;;6.20;99.90;;;;;;5174930;27;20272;-63
2023/12/27 01:57:04;;;;;;;9.77;3.23;;;6.20;99.90;;;;;;5174622;27;20182;-64
2023/12/27 01:59:32;;;;;;;8.07;2.87;;;6.20;99.90;;;;;;5155829;27;20209;-63
2023/12/27 02:02:01;;;;;;;4.03;2.77;;;6.20;99.90;;;;;;5174757;27;20178;-63
2023/12/27 02:04:30;;;;;;;9.37;2.87;;;6.30;99.90;;;;;;5174745;27;20193;-63
2023/12/27 02:07:00;;;;;;;10.60;3.43;;;6.30;99.90;;;;;;5155871;27;20202;-63
2023/12/27 02:09:29;;;;;;;7.10;3.07;;;6.30;99.90;;;;;;5174552;27;20218;-63
2023/12/27 02:11:57;;;;;;;7.90;2.60;;;6.40;99.90;;;;;;5174636;27;20948;-63
2023/12/27 02:14:26;;;;;;;11.50;3.30;;;6.30;99.90;;;;;;5155113;27;20312;-64
2023/12/27 02:16:55;;;;;;;6.20;2.77;;;6.40;99.90;;;;;;5155585;27;20198;-63
2023/12/27 02:19:28;;;;;;;8.67;4.33;;;6.30;99.90;;;;;;5155334;27;20198;-64
2023/12/27 02:21:59;;;;;;;4.83;2.90;;;6.30;99.90;;;;;;5155093;27;20195;-64
2023/12/27 02:24:36;;;;;;;8.43;2.77;;;6.30;99.90;;;;;;5174294;27;20194;-63
2023/12/27 02:27:05;;;;;;;5.10;2.73;;;6.20;99.90;;;;;;5154886;27;20855;-64
2023/12/27 02:29:36;;;;;;;6.70;2.33;;;6.30;99.90;;;;;;5173954;27;20237;-62
2023/12/27 02:32:06;;;;;;;5.60;2.67;;;6.40;99.90;;;;;;5174229;27;20748;-63
2023/12/27 02:34:34;;;;;;;6.90;2.77;;;6.40;99.90;;;;;;5174131;27;20206;-63
2023/12/27 02:37:03;;;;;;;9.07;2.97;;;6.40;99.90;;;;;;5155245;27;20320;-64
2023/12/27 02:39:33;;;;;;;6.37;2.80;;;6.30;99.90;;;;;;5154891;27;20213;-63
2023/12/27 02:42:02;;;;;;;6.13;2.33;;;6.30;99.90;;;;;;5173974;27;20194;-62
2023/12/27 02:44:31;;;;;;;5.37;2.80;;;6.40;99.90;;;;;;5174087;27;20183;-63
2023/12/27 02:47:01;;;;;;;6.67;2.83;;;6.50;99.90;;;;;;5173805;27;20230;-63
2023/12/27 02:49:30;;;;;;;10.40;3.00;;;6.50;99.90;;;;;;5154814;27;20580;-64
2023/12/27 02:51:59;;;;;;;7.90;2.40;;;6.60;99.90;;;;;;5154578;27;20223;-63
2023/12/27 02:54:27;;;;;;;7.97;3.30;;;6.50;99.90;;;;;;5154888;27;20198;-63
2023/12/27 02:56:58;;;;;;;4.73;2.60;;;6.40;99.90;;;;;;5149349;27;20208;-64
2023/12/27 02:59:26;;;;;;;7.40;2.70;;;6.50;99.90;;;;;;5170968;27;20202;-63
2023/12/27 03:01:55;;;;;;;7.50;2.73;;;6.30;99.90;;;;;;5173941;27;20274;-63
2023/12/27 03:04:23;;;;;;;5.03;2.40;;;6.30;99.90;;;;;;5174042;27;20194;-63
2023/12/27 03:06:52;;;;;;;9.57;3.10;;;6.40;99.90;;;;;;5154992;27;20614;-64
2023/12/27 03:09:20;;;;;;;4.50;2.47;;;6.40;99.90;;;;;;5173616;27;20757;-62
2023/12/27 03:11:49;;;;;;;7.13;2.73;;;6.30;99.90;;;;;;5173666;27;20194;-63
2023/12/27 03:14:20;;;;;;;6.23;2.53;;;6.40;99.90;;;;;;5154573;27;20628;-63
2023/12/27 03:16:48;;;;;;;6.87;2.87;;;6.40;99.90;;;;;;5154845;27;20597;-63
2023/12/27 03:19:17;;;;;;;6.70;2.83;;;6.30;99.90;;;;;;5173424;27;20277;-63
2023/12/27 03:21:45;;;;;;;7.13;3.00;;;6.30;99.90;;;;;;5173353;27;20208;-64
2023/12/27 03:24:14;;;;;;;8.70;2.67;;;6.30;99.90;;;;;;5173365;27;20679;-63
2023/12/27 03:26:44;;;;;;;5.30;2.80;;;6.50;99.90;;;;;;5154280;27;20198;-63
2023/12/27 03:29:14;;;;;;;8.50;2.97;;;6.50;99.90;;;;;;5153774;27;20220;-64
2023/12/27 03:31:44;;;;;;;7.80;2.70;;;6.50;99.90;;;;;;5173079;27;20218;-63
2023/12/27 03:34:13;;;;;;;6.67;2.37;;;6.40;99.90;;;;;;5173144;27;20715;-63
2023/12/27 03:36:42;;;;;;;10.63;3.03;;;6.50;99.90;;;;;;5173098;27;20530;-63
2023/12/27 03:39:12;;;;;;;11.87;2.90;;;6.40;99.90;;;;;;5172912;27;20254;-64
2023/12/27 03:41:40;;;;;;;7.40;2.83;;;6.40;99.90;;;;;;5153160;27;20225;-64
2023/12/27 03:44:09;;;;;;;5.90;2.63;;;6.50;99.90;;;;;;5154141;27;20200;-64
2023/12/27 03:46:38;;;;;;;8.80;3.10;;;6.50;99.90;;;;;;5153458;27;20222;-64
2023/12/27 03:49:08;;;;;;;3.47;2.43;;;6.50;99.90;;;;;;5172665;27;20217;-64
2023/12/27 03:51:36;;;;;;;7.00;2.80;;;6.50;99.90;;;;;;5172763;27;20202;-63
2023/12/27 03:54:05;;;;;;;11.40;2.60;;;6.50;99.90;;;;;;5153697;27;20186;-63
2023/12/27 03:56:34;;;;;;;5.23;2.40;;;6.50;99.90;;;;;;5153785;27;20202;-63
2023/12/27 03:59:05;;;;;;;5.83;2.60;;;6.40;99.90;;;;;;5172221;27;20198;-63
2023/12/27 04:01:34;;;;;;;8.47;2.30;;;6.50;99.90;;;;;;5172403;27;20199;-61
2023/12/27 04:04:02;;;;;;;5.43;2.37;;;6.50;99.90;;;;;;5153034;27;20203;-63
2023/12/27 04:06:33;;;;;;;6.93;2.77;;;6.50;99.90;;;;;;5153505;27;20193;-63
2023/12/27 04:09:02;;;;;;;13.40;2.93;;;6.40;99.90;;;;;;5172106;27;20233;-62
2023/12/27 04:11:31;;;;;;;7.60;3.03;;;6.40;99.90;;;;;;5172131;27;20647;-63
2023/12/27 04:13:59;;;;;;;10.80;3.20;;;6.50;99.90;;;;;;5153072;27;20290;-62
2023/12/27 04:16:28;;;;;;;4.40;2.63;;;6.50;99.90;;;;;;5172078;27;20615;-63
2023/12/27 04:18:56;;;;;;;4.90;2.57;;;6.50;99.90;;;;;;5152758;27;20207;-63
2023/12/27 04:21:25;;;;;;;5.57;2.50;;;6.50;99.90;;;;;;5153095;27;20249;-62
2023/12/27 04:23:55;;;;;;;7.03;3.20;;;6.50;99.90;;;;;;5171973;27;20223;-62
2023/12/27 04:26:24;;;;;;;9.20;2.40;;;6.50;99.90;;;;;;5171857;27;20186;-62
2023/12/27 04:28:53;;;;;;;8.23;2.80;;;6.40;99.90;;;;;;5152987;27;20248;-62
2023/12/27 04:31:21;;;;;;;7.90;2.80;;;6.30;99.90;;;;;;5152896;27;20254;-63
2023/12/27 04:33:50;;;;;;;7.63;2.83;;;6.40;99.90;;;;;;5153380;27;20212;-64
2023/12/27 04:36:18;;;;;;;10.03;3.10;;;6.50;99.90;;;;;;5172162;27;20234;-63
2023/12/27 04:38:47;;;;;;;7.73;2.40;;;6.50;99.90;;;;;;5171829;27;20207;-63
2023/12/27 04:41:18;;;;;;;6.67;3.07;;;6.50;99.90;;;;;;5153388;27;20195;-63
2023/12/27 04:43:47;;;;;;;7.23;2.90;;;6.50;99.90;;;;;;5156598;27;20693;-63
2023/12/27 04:46:16;;;;;;;10.47;2.70;;;6.50;99.90;;;;;;5176490;27;20237;-63
2023/12/27 04:48:45;;;;;;;8.67;2.90;;;6.40;99.90;;;;;;5176326;27;20723;-62
2023/12/27 04:51:14;;;;;;;7.37;3.00;;;6.50;99.90;;;;;;5176413;27;20214;-63
2023/12/27 04:53:44;;;;;;;12.73;4.73;;;6.60;99.90;;;;;;5157619;27;20220;-63
2023/12/27 04:56:13;;;;;;;10.10;3.60;;;6.60;99.90;;;;;;5157407;27;20603;-63
2023/12/27 04:58:43;;;;;;;7.47;2.63;;;6.50;99.90;;;;;;5157067;27;20205;-63
2023/12/27 05:01:11;;;;;;;7.23;2.60;;;6.40;99.90;;;;;;5156895;27;20209;-63
2023/12/27 05:03:40;;;;;;;7.37;2.57;;;6.50;99.90;;;;;;5176038;27;20592;-63
2023/12/27 05:06:09;;;;;;;7.67;2.97;;;6.50;99.90;;;;;;5175630;27;20191;-63
2023/12/27 05:08:40;;;;;;;7.53;2.57;;;6.50;99.90;;;;;;5175681;27;20911;-64
2023/12/27 05:11:12;;;;;;;4.97;2.77;;;6.50;99.90;;;;;;5156613;27;20209;-63
2023/12/27 05:13:42;;;;;;;10.87;2.97;;;6.40;99.90;;;;;;5175416;27;20185;-63
2023/12/27 05:16:11;;;;;;;9.70;3.03;;;6.40;99.90;;;;;;5175606;27;20520;-63
2023/12/27 05:18:41;;;;;;;6.53;2.67;;;6.30;99.90;;;;;;5175320;27;20664;-63
2023/12/27 05:21:11;;;;;;;5.30;2.80;;;6.40;99.90;;;;;;5175341;27;20197;-63
2023/12/27 05:23:39;;;;;;;9.87;3.33;;;6.50;99.90;;;;;;5175200;27;20289;-64
2023/12/27 05:26:08;;;;;;;5.80;3.57;;;6.40;99.90;;;;;;5175374;27;20182;-63
2023/12/27 05:28:37;;;;;;;12.33;3.40;;;6.40;99.90;;;;;;5175045;27;20194;-63
2023/12/27 05:31:07;;;;;;;8.40;3.00;;;6.40;99.90;;;;;;5175301;27;20209;-64
2023/12/27 05:33:36;;;;;;;7.27;2.63;;;6.40;99.90;;;;;;5175332;27;20618;-64
2023/12/27 05:36:05;;;;;;;8.77;3.07;;;6.30;99.90;;;;;;5175151;27;20204;-63
2023/12/27 05:38:34;;;;;;;4.33;2.23;;;6.40;99.90;;;;;;5175286;27;20555;-62
2023/12/27 05:41:03;;;;;;;7.57;3.07;;;6.30;99.90;;;;;;5174940;27;20322;-63
2023/12/27 05:43:31;;;;;;;7.53;2.30;;;6.40;99.90;;;;;;5175074;27;20190;-63
2023/12/27 05:46:00;;;;;;;6.50;2.90;;;6.40;99.90;;;;;;5174601;27;20213;-63
2023/12/27 05:48:30;;;;;;;4.93;2.63;;;6.40;99.90;;;;;;5175079;27;20608;-63
2023/12/27 05:50:59;;;;;;;7.30;4.13;;;6.50;99.90;;;;;;5174829;27;20209;-64
2023/12/27 05:53:28;;;;;;;9.83;3.00;;;6.40;99.90;;;;;;5174680;27;20540;-64
2023/12/27 05:55:57;;;;;;;8.70;2.80;;;6.50;99.90;;;;;;5175008;27;20212;-63
2023/12/27 05:58:26;;;;;;;4.93;3.30;;;6.50;99.90;;;;;;5174822;27;20229;-63
2023/12/27 06:00:54;;;;;;;6.63;2.27;;;6.50;99.90;;;;;;5175027;27;20193;-64
2023/12/27 06:03:25;;;;;;;10.03;3.60;;;6.30;99.90;;;;;;5174801;27;20201;-64
2023/12/27 06:05:55;;;;;;;7.83;3.53;;;6.40;99.90;;;;;;5174893;27;20186;-63
2023/12/27 06:08:24;;;;;;;7.60;2.80;;;6.30;99.90;;;;;;5174729;27;20202;-64
2023/12/27 06:10:52;;;;;;;6.10;2.90;;;6.30;99.90;;;;;;5174811;27;20261;-63
2023/12/27 06:13:21;;;;;;;8.73;2.80;;;6.30;99.90;;;;;;5174904;27;20201;-64
2023/12/27 06:15:49;;;;;;;5.07;2.90;;;6.30;99.90;;;;;;5166412;27;20191;-64
2023/12/27 06:18:18;;;;;;;9.57;2.43;;;6.30;99.90;;;;;;5174562;27;20191;-64
2023/12/27 06:20:47;;;;;;;5.27;2.63;;;6.20;99.90;;;;;;5174608;27;20269;-64
2023/12/27 06:23:17;;;;;;;7.80;3.00;;;6.20;99.90;;;;;;5174477;27;20309;-63
2023/12/27 06:25:45;;;;;;;13.07;3.40;;;6.10;99.90;;;;;;5174521;27;20661;-63
2023/12/27 06:28:14;;;;;;;7.13;3.20;;;6.10;99.90;;;;;;5174165;27;20186;-64
2023/12/27 06:30:42;;;;;;;5.63;3.07;;;6.10;99.90;;;;;;5173961;27;20251;-64
2023/12/27 06:33:11;;;;;;;5.17;3.30;;;6.20;99.90;;;;;;5174211;27;20960;-63
2023/12/27 06:35:39;;;;;;;13.00;3.57;;;6.10;99.90;;;;;;5174077;27;20301;-64
2023/12/27 06:38:08;;;;;;;8.17;2.90;;;6.10;99.90;;;;;;5174064;27;20209;-63
2023/12/27 06:40:38;;;;;;;9.60;5.30;;;6.00;99.90;;;;;;5173855;27;20202;-64
2023/12/27 06:43:06;;;;;;;7.57;5.33;;;6.00;99.90;;;;;;5174294;27;20196;-63
2023/12/27 06:45:35;;;;;;;6.50;4.33;;;6.00;99.90;;;;;;5173823;27;20185;-63
2023/12/27 06:48:04;;;;;;;16.90;8.83;;;6.00;99.90;;;;;;5173801;27;20226;-64
2023/12/27 06:50:33;;;;;;;4.47;3.10;;;6.00;99.90;;;;;;5173922;27;20226;-63
2023/12/27 06:53:02;;;;;;;7.70;3.33;;;6.00;99.90;;;;;;5173913;27;20689;-63
2023/12/27 06:55:31;;;;;;;6.07;3.37;;;6.10;99.90;;;;;;5173838;27;20675;-63
2023/12/27 06:58:01;;;;;;;6.63;2.63;;;6.00;99.90;;;;;;5173568;27;20187;-63
2023/12/27 07:00:30;;;;;;;8.00;3.37;;;6.00;99.90;;;;;;5173623;27;20213;-63
2023/12/27 07:02:59;;;;;;;16.43;3.67;;;5.90;99.90;;;;;;5173391;27;21013;-63
2023/12/27 07:05:28;;;;;;;8.70;3.37;;;6.00;99.90;;;;;;5172667;27;20248;-64
2023/12/27 07:07:56;;;;;;;8.37;3.07;;;6.10;99.90;;;;;;5173308;27;20281;-62
2023/12/27 07:10:25;;;;;;;11.47;3.53;;;6.10;99.90;;;;;;5173148;27;20214;-63
2023/12/27 07:12:54;;;;;;;6.70;3.73;;;6.10;99.90;;;;;;5173201;27;20684;-63
2023/12/27 07:15:24;;;;;;;10.93;3.43;;;6.10;99.90;;;;;;5173019;27;20182;-64
2023/12/27 07:17:54;;;;;;;13.63;4.13;;;6.10;99.90;;;;;;5173311;27;20191;-62
2023/12/27 07:20:24;;;;;;;10.13;3.83;;;6.20;99.90;;;;;;5173023;27;20202;-63
2023/12/27 07:22:52;;;;;;;8.07;3.90;;;6.20;99.90;;;;;;5146505;27;20207;-62
2023/12/27 07:25:21;;;;;;;10.63;4.60;;;6.30;99.90;;;;;;5131420;27;20274;-62
2023/12/27 07:27:49;;;;;;;17.00;8.00;;;6.20;99.90;;;;;;5133849;27;20561;-63
2023/12/27 07:30:18;;;;;;;10.20;4.03;;;6.30;99.90;;;;;;5151778;27;20187;-62
2023/12/27 07:32:48;;;;;;;14.13;5.37;;;6.30;99.90;;;;;;5152076;27;20634;-62
2023/12/27 07:35:17;;;;;;;11.00;3.97;;;6.10;99.90;;;;;;5151374;27;20194;-63
2023/12/27 07:37:46;;;;;;;9.63;3.30;;;6.00;99.90;;;;;;5151853;27;20687;-64
2023/12/27 07:40:16;;;;;;;6.63;3.83;;;6.10;99.90;;;;;;5133071;27;20206;-63
2023/12/27 07:42:45;;;;;;;10.37;5.13;;;6.10;99.90;;;;;;5151952;27;20229;-65
2023/12/27 07:45:13;;;;;;;7.90;3.73;;;6.10;99.90;;;;;;5151720;27;20198;-63
2023/12/27 07:47:43;;;;;;;11.40;4.23;;;6.10;99.90;;;;;;5151389;27;20230;-64
2023/12/27 07:50:13;;;;;;;9.57;3.67;;;6.20;99.90;;;;;;5151246;27;20202;-62
2023/12/27 07:52:43;;;;;;;6.20;3.47;;;6.20;99.90;;;;;;5151477;27;20535;-63
2023/12/27 07:55:12;;;;;;;9.37;5.20;;;6.30;99.90;;;;;;5151380;27;20222;-63
2023/12/27 07:57:41;;;;;;;12.87;3.73;;;6.20;99.90;;;;;;5151110;27;20201;-63
2023/12/27 08:00:11;;;;;;;7.60;3.80;;;6.20;99.90;;;;;;5151214;27;20194;-62
2023/12/27 08:02:40;;;;;;;8.80;4.10;;;6.20;99.90;;;;;;5151354;27;20206;-62
2023/12/27 08:05:09;;;;;;;6.27;3.43;;;6.20;99.90;;;;;;5150536;27;20191;-63
2023/12/27 08:07:39;;;;;;;11.93;3.87;;;6.10;99.90;;;;;;5150794;27;20561;-64
2023/12/27 08:10:08;;;;;;;12.37;4.07;;;6.10;99.90;;;;;;5151028;27;20285;-62
2023/12/27 08:12:37;;;;;;;7.53;4.00;;;6.00;99.90;;;;;;5151116;27;20233;-62
2023/12/27 08:15:09;;;;;;;12.23;5.50;;;6.00;99.90;;;;;;5150806;27;20669;-62
2023/12/27 08:17:37;;;;;;;13.27;4.73;;;6.10;99.90;;;;;;5150856;27;20194;-63
2023/12/27 08:20:08;;;;;;;15.60;5.30;;;6.00;99.90;;;;;;5150205;27;20221;-63
2023/12/27 08:22:38;;;;;;;13.70;4.57;;;6.00;99.90;;;;;;5150953;27;20247;-62
2023/12/27 08:25:12;;;;;;;10.57;3.93;;;6.10;99.90;;;;;;5150990;27;20202;-62
2023/12/27 08:27:40;;;;;;;9.60;4.10;;;6.20;99.90;;;;;;5150575;27;20194;-64
2023/12/27 08:30:10;;;;;;;11.53;3.50;;;6.30;99.90;;;;;;5150856;27;20269;-62
2023/12/27 08:32:38;;;;;;;12.30;3.63;;;6.30;99.90;;;;;;5150741;27;20323;-62
2023/12/27 08:35:08;;;;;;;5.73;3.20;;;6.30;99.90;;;;;;5150357;27;20208;-61
2023/12/27 08:37:38;;;;;;;14.33;4.30;;;6.40;99.90;;;;;;5150539;27;20714;-61
2023/12/27 08:40:08;;;;;;;10.20;3.90;;;6.40;99.90;;;;;;5150726;27;20206;-63
2023/12/27 08:42:37;;;;;;;12.77;4.67;;;6.40;99.90;;;;;;5150772;27;20221;-63
2023/12/27 08:45:07;;;;;;;10.07;4.80;;;6.40;99.90;;;;;;5150408;27;20195;-61
2023/12/27 08:47:35;;;;;;;9.50;3.93;;;6.40;99.90;;;;;;5150229;27;20223;-62
2023/12/27 08:50:05;;;;;;;23.00;10.97;;;6.60;99.90;;;;;;5150700;27;20252;-61
2023/12/27 08:52:34;;;;;;;7.60;3.93;;;6.50;99.90;;;;;;5150664;27;20235;-64
2023/12/27 08:55:05;;;;;;;8.33;3.77;;;6.40;99.90;;;;;;5150633;27;20730;-62
2023/12/27 08:57:34;;;;;;;8.53;4.03;;;6.40;99.90;;;;;;5150363;27;20240;-63
2023/12/27 09:00:03;;;;;;;9.50;4.40;;;6.40;99.90;;;;;;5131750;27;20210;-62
2023/12/27 09:02:32;;;;;;;11.47;4.77;;;6.40;99.90;;;;;;5150280;27;20194;-62
2023/12/27 09:05:02;;;;;;;9.67;4.17;;;6.40;99.90;;;;;;5150770;27;20192;-62
2023/12/27 09:07:31;;;;;;;5.47;3.00;;;6.50;99.90;;;;;;5150482;27;20198;-63
2023/12/27 09:10:00;;;;;;;13.80;3.57;;;6.50;99.90;;;;;;5131525;27;20672;-64
2023/12/27 09:12:30;;;;;;;8.77;3.80;;;6.60;99.90;;;;;;5150584;27;20695;-63
2023/12/27 09:14:59;;;;;;;6.53;4.23;;;6.60;99.90;;;;;;5131358;27;20199;-63
2023/12/27 09:17:27;;;;;;;8.57;3.87;;;6.70;99.90;;;;;;5149769;27;20275;-62
2023/12/27 09:19:56;;;;;;;13.20;5.63;;;6.70;99.90;;;;;;5131761;27;20199;-63
2023/12/27 09:22:25;;;;;;;14.87;4.37;;;6.60;99.90;;;;;;5150486;27;20186;-62
2023/12/27 09:24:54;;;;;;;9.53;5.17;;;6.70;99.90;;;;;;5150377;27;20203;-62
2023/12/27 09:27:26;;;;;;;10.97;4.83;;;6.80;99.90;;;;;;5141504;27;20191;-62
2023/12/27 09:29:56;;;;;;;8.27;4.20;;;6.80;99.90;;;;;;5154354;27;20202;-62
2023/12/27 09:32:25;;;;;;;24.33;12.10;;;6.80;99.90;;;;;;5134675;27;20230;-62
2023/12/27 09:34:53;;;;;;;7.97;4.30;;;6.80;99.90;;;;;;5154294;27;20200;-62
2023/12/27 09:37:22;;;;;;;11.30;5.50;;;6.80;99.90;;;;;;5154054;27;20195;-62
2023/12/27 09:39:51;;;;;;;10.70;4.97;;;6.80;99.90;;;;;;5154146;27;20193;-62
2023/12/27 09:42:19;;;;;;;15.33;5.07;;;6.90;99.90;;;;;;5154161;27;20203;-63
2023/12/27 09:44:50;;;;;;;13.30;4.37;;;7.00;99.90;;;;;;5153960;27;20199;-62
2023/12/27 09:47:22;;;;;;;6.87;3.70;;;7.00;99.90;;;;;;5153269;27;20248;-63
2023/12/27 09:49:54;;;;;;;8.10;3.63;;;6.70;99.90;;;;;;5153468;27;20202;-63
2023/12/27 09:52:24;;;;;;;10.67;3.67;;;6.70;99.90;;;;;;5153621;27;20222;-64
2023/12/27 09:54:53;;;;;;;11.80;4.03;;;6.70;99.90;;;;;;5153823;27;20903;-64
2023/12/27 09:57:23;;;;;;;7.67;4.00;;;6.80;99.90;;;;;;5153643;27;20559;-64
2023/12/27 09:59:54;;;;;;;9.17;3.67;;;7.00;99.90;;;;;;5153641;27;20294;-65
2023/12/27 10:02:28;;;;;;;10.27;3.77;;;7.10;99.90;;;;;;5153355;27;20213;-62
2023/12/27 10:05:06;;;;;;;13.33;4.23;;;7.00;99.90;;;;;;5153140;27;20198;-63
2023/12/27 10:07:39;;;;;;;11.70;5.10;;;6.90;99.90;;;;;;5153157;27;20644;-64
2023/12/27 10:10:09;;;;;;;15.40;9.97;;;6.90;99.90;;;;;;5152867;27;20195;-63
2023/12/27 10:12:44;;;;;;;18.27;8.80;;;6.90;99.90;;;;;;5152935;27;20215;-63
2023/12/27 10:15:14;;;;;;;10.97;4.10;;;6.80;99.90;;;;;;5152862;27;20232;-64
2023/12/27 10:17:44;;;;;;;12.93;5.27;;;6.90;99.90;;;;;;5152602;27;20198;-63
2023/12/27 10:20:32;;;;;;;9.77;4.40;;;6.90;99.90;;;;;;5152594;27;20203;-64
2023/12/27 10:23:01;;;;;;;11.37;4.63;;;6.70;99.90;;;;;;5152734;27;20187;-64
2023/12/27 10:25:30;;;;;;;7.43;4.23;;;6.80;99.90;;;;;;5152738;27;20187;-64
2023/12/27 10:27:59;;;;;;;13.53;4.57;;;6.80;99.90;;;;;;5152473;27;20293;-63
2023/12/27 10:30:28;;;;;;;11.50;4.23;;;6.80;99.90;;;;;;5152426;27;20290;-63
2023/12/27 10:33:02;;;;;;;13.63;4.27;;;6.70;99.90;;;;;;5152210;27;20752;-64
2023/12/27 10:35:32;;;;;;;11.90;4.20;;;6.60;99.90;;;;;;5152464;27;20199;-64
2023/12/27 10:38:04;;;;;;;10.07;4.80;;;6.60;99.90;;;;;;5152348;27;20201;-64
2023/12/27 10:40:34;;;;;;;10.93;4.43;;;6.80;99.90;;;;;;5150863;27;20213;-65
2023/12/27 10:43:03;;;;;;;7.50;3.90;;;7.00;99.90;;;;;;5152292;27;20199;-64
2023/12/27 10:45:32;;;;;;;12.90;4.43;;;6.90;99.90;;;;;;5152433;27;20199;-64
2023/12/27 10:48:04;;;;;;;8.73;4.60;;;7.00;99.90;;;;;;5151991;27;20231;-63
2023/12/27 10:50:35;;;;;;;18.43;6.60;;;7.00;99.90;;;;;;5152293;27;20236;-64
2023/12/27 10:53:06;;;;;;;12.23;5.53;;;6.90;99.90;;;;;;5133309;27;20630;-64
2023/12/27 10:55:36;;;;;;;12.17;4.67;;;7.00;99.90;;;;;;5152367;27;20731;-63
2023/12/27 10:58:07;;;;;;;7.60;4.10;;;7.20;99.90;;;;;;5151944;27;20295;-63
2023/12/27 11:00:36;;;;;;;12.23;4.57;;;7.30;99.90;;;;;;5152355;27;20192;-63
2023/12/27 11:03:07;;;;;;;6.83;4.13;;;7.20;99.90;;;;;;5152069;27;20204;-64
2023/12/27 11:05:38;;;;;;;7.63;3.63;;;7.20;99.90;;;;;;5151980;27;20211;-64
2023/12/27 11:08:07;;;;;;;13.57;5.00;;;7.10;99.50;;;;;;5151747;27;20689;-65
2023/12/27 11:10:38;;;;;;;15.73;4.40;;;7.10;99.90;;;;;;5152098;27;20198;-64
2023/12/27 11:13:10;;;;;;;14.70;4.23;;;7.00;99.90;;;;;;5152028;27;20213;-64
2023/12/27 11:15:44;;;;;;;13.07;4.80;;;7.20;99.90;;;;;;5151961;27;20204;-64
2023/12/27 11:18:14;;;;;;;7.90;4.17;;;7.20;99.30;;;;;;5151816;27;20549;-64
2023/12/27 11:20:47;;;;;;;13.77;4.60;;;7.30;98.50;;;;;;5151791;27;20192;-65
2023/12/27 11:23:15;;;;;;;12.20;5.30;;;7.60;98.60;;;;;;5133085;27;20198;-64
2023/12/27 11:25:44;;;;;;;10.67;5.33;;;7.60;96.90;;;;;;5151856;27;20202;-65
2023/12/27 11:28:13;;;;;;;13.53;4.43;;;7.60;97.30;;;;;;5151296;27;20202;-65
2023/12/27 11:30:41;;;;;;;14.73;4.13;;;7.60;97.40;;;;;;5151587;27;20312;-64
2023/12/27 11:33:11;;;;;;;10.33;3.90;;;7.50;96.40;;;;;;5151241;27;20215;-64
2023/12/27 11:35:42;;;;;;;10.70;3.83;;;7.40;98.20;;;;;;5151354;27;20679;-64
2023/12/27 11:38:14;;;;;;;9.83;4.53;;;7.30;97.80;;;;;;5151381;27;20205;-64
2023/12/27 11:40:44;;;;;;;9.83;4.63;;;7.30;98.80;;;;;;5151293;27;20193;-65
2023/12/27 11:43:20;;;;;;;11.30;4.23;;;7.20;99.90;;;;;;5151308;27;20228;-64
2023/12/27 11:46:02;;;;;;;15.27;5.20;;;7.30;99.90;;;;;;5151068;27;20286;-64
2023/12/27 11:48:34;;;;;;;5.93;3.70;;;7.20;99.90;;;;;;5151123;27;20190;-64
2023/12/27 11:51:29;;;;;;;16.33;4.03;;;7.20;99.90;;;;;;5150646;27;20202;-64
2023/12/27 11:53:58;;;;;;;9.97;3.60;;;7.00;99.90;;;;;;5150748;27;20886;-64
2023/12/27 11:56:30;;;;;;;11.73;3.97;;;6.90;99.90;;;;;;5149760;27;20220;-64
2023/12/27 11:59:00;;;;;;;12.23;4.70;;;7.10;99.90;;;;;;5144060;27;20222;-64
2023/12/27 12:01:30;;;;;;;12.23;4.77;;;7.10;99.90;;;;;;5150705;27;20186;-64
2023/12/27 12:04:31;;;;;;;8.23;4.47;;;7.10;99.90;;;;;;5150615;27;20271;-63
2023/12/27 12:07:47;;;;;;;13.70;4.17;;;7.00;99.90;;;;;;5150623;27;20219;-65
2023/12/27 12:10:23;;;;;;;23.67;9.73;;;6.90;99.90;;;;;;5150616;27;20198;-65
2023/12/27 12:12:52;;;;;;;9.10;3.83;;;6.80;99.90;;;;;;5150511;27;20190;-65
2023/12/27 12:15:22;;;;;;;17.73;7.17;;;6.70;99.90;;;;;;5150252;27;20200;-65
2023/12/27 12:17:52;;;;;;;14.80;5.13;;;6.70;99.90;;;;;;5150483;27;20272;-64
2023/12/27 12:20:21;;;;;;;9.70;4.20;;;6.70;99.90;;;;;;5150306;27;20202;-65
2023/12/27 12:22:53;;;;;;;14.97;4.67;;;6.70;99.90;;;;;;5150581;27;20198;-64
2023/12/27 12:25:25;;;;;;;11.70;4.43;;;6.70;99.90;;;;;;5150191;27;20276;-64
2023/12/27 12:27:54;;;;;;;11.63;5.03;;;6.80;99.90;;;;;;5150138;27;20278;-65
2023/12/27 12:30:23;;;;;;;9.57;4.30;;;6.70;99.90;;;;;;5150455;27;20196;-65
2023/12/27 12:32:52;;;;;;;8.10;4.23;;;6.70;99.90;;;;;;5150199;27;20206;-65
2023/12/27 12:35:20;;;;;;;14.30;3.97;;;6.70;99.90;;;;;;5131598;27;20208;-64
2023/12/27 12:37:49;;;;;;;10.73;4.93;;;6.70;99.90;;;;;;5150439;27;20774;-64
2023/12/27 12:40:19;;;;;;;12.30;4.50;;;6.80;99.90;;;;;;5150103;27;20297;-65
2023/12/27 12:42:48;;;;;;;12.57;4.20;;;6.80;99.90;;;;;;5150328;27;20275;-64
2023/12/27 12:45:17;;;;;;;13.57;4.60;;;6.70;99.90;;;;;;5150503;27;20227;-64
2023/12/27 12:47:46;;;;;;;36.00;15.53;;;6.60;99.90;;;;;;5149824;27;20227;-65
2023/12/27 12:50:19;;;;;;;10.47;4.80;;;6.70;99.90;;;;;;5150111;27;20199;-65
2023/12/27 12:52:49;;;;;;;12.77;4.93;;;6.70;99.90;;;;;;5150264;27;20202;-63
2023/12/27 12:55:19;;;;;;;17.07;5.17;;;6.70;99.90;;;;;;5149855;27;20633;-64
2023/12/27 12:57:48;;;;;;;14.97;4.60;;;6.80;99.90;;;;;;5141653;27;20274;-65
2023/12/27 13:00:22;;;;;;;13.70;4.70;;;6.90;99.90;;;;;;5150012;27;20195;-65
2023/12/27 13:02:53;;;;;;;7.17;4.23;;;6.90;99.90;;;;;;5150495;27;20722;-65
2023/12/27 13:05:22;;;;;;;12.93;4.80;;;6.90;99.90;;;;;;5154156;27;20222;-64